sensor_id;sensor_type;location;lat;lon;timestamp;P1;durP1;ratioP1;P2;durP2;ratioP2
57443;SDS011;43289;52.962;6.196;2024-02-15T00:00:39;39.08;;;16.23;;
57443;SDS011;43289;52.962;6.196;2024-02-15T00:03:05;42.80;;;15.88;;
57443;SDS011;43289;52.962;6.196;2024-02-15T00:05:32;34.25;;;15.90;;
57443;SDS011;43289;52.962;6.196;2024-02-15T00:08:01;34.25;;;16.30;;
57443;SDS011;43289;52.962;6.196;2024-02-15T00:10:27;32.03;;;14.57;;
57443;SDS011;43289;52.962;6.196;2024-02-15T00:12:53;29.92;;;15.13;;
57443;SDS011;43289;52.962;6.196;2024-02-15T00:15:20;41.03;;;16.77;;
57443;SDS011;43289;52.962;6.196;2024-02-15T00:17:46;35.00;;;15.77;;
57443;SDS011;43289;52.962;6.196;2024-02-15T00:20:12;33.25;;;16.90;;
57443;SDS011;43289;52.962;6.196;2024-02-15T00:22:38;30.20;;;15.60;;
57443;SDS011;43289;52.962;6.196;2024-02-15T00:25:06;35.20;;;15.70;;
57443;SDS011;43289;52.962;6.196;2024-02-15T00:27:34;32.63;;;14.88;;
57443;SDS011;43289;52.962;6.196;2024-02-15T00:30:00;26.90;;;13.98;;
57443;SDS011;43289;52.962;6.196;2024-02-15T00:32:27;30.73;;;14.73;;
57443;SDS011;43289;52.962;6.196;2024-02-15T00:34:53;33.35;;;14.13;;
57443;SDS011;43289;52.962;6.196;2024-02-15T00:37:20;30.45;;;14.50;;
57443;SDS011;43289;52.962;6.196;2024-02-15T00:39:46;28.02;;;14.25;;
57443;SDS011;43289;52.962;6.196;2024-02-15T00:42:12;27.02;;;13.50;;
57443;SDS011;43289;52.962;6.196;2024-02-15T00:44:39;22.00;;;13.07;;
57443;SDS011;43289;52.962;6.196;2024-02-15T00:47:05;24.60;;;12.45;;
57443;SDS011;43289;52.962;6.196;2024-02-15T00:49:31;25.92;;;12.77;;
57443;SDS011;43289;52.962;6.196;2024-02-15T00:51:57;21.92;;;11.73;;
57443;SDS011;43289;52.962;6.196;2024-02-15T00:54:23;24.70;;;10.95;;
57443;SDS011;43289;52.962;6.196;2024-02-15T00:56:50;25.70;;;11.80;;
57443;SDS011;43289;52.962;6.196;2024-02-15T00:59:17;21.70;;;11.80;;
57443;SDS011;43289;52.962;6.196;2024-02-15T01:01:43;26.52;;;11.52;;
57443;SDS011;43289;52.962;6.196;2024-02-15T01:04:10;25.80;;;11.38;;
57443;SDS011;43289;52.962;6.196;2024-02-15T01:06:36;21.83;;;9.93;;
57443;SDS011;43289;52.962;6.196;2024-02-15T01:09:02;23.27;;;10.98;;
57443;SDS011;43289;52.962;6.196;2024-02-15T01:11:29;22.30;;;11.40;;
57443;SDS011;43289;52.962;6.196;2024-02-15T01:13:57;23.75;;;10.75;;
57443;SDS011;43289;52.962;6.196;2024-02-15T01:16:23;22.23;;;10.52;;
57443;SDS011;43289;52.962;6.196;2024-02-15T01:18:52;17.17;;;10.82;;
57443;SDS011;43289;52.962;6.196;2024-02-15T01:21:18;17.13;;;9.90;;
57443;SDS011;43289;52.962;6.196;2024-02-15T01:23:44;20.42;;;8.90;;
57443;SDS011;43289;52.962;6.196;2024-02-15T01:26:11;22.38;;;9.70;;
57443;SDS011;43289;52.962;6.196;2024-02-15T01:28:39;13.02;;;7.15;;
57443;SDS011;43289;52.962;6.196;2024-02-15T01:31:08;16.48;;;6.93;;
57443;SDS011;43289;52.962;6.196;2024-02-15T01:33:35;24.15;;;7.68;;
57443;SDS011;43289;52.962;6.196;2024-02-15T01:36:02;16.20;;;6.43;;
57443;SDS011;43289;52.962;6.196;2024-02-15T01:38:31;16.63;;;7.75;;
57443;SDS011;43289;52.962;6.196;2024-02-15T01:40:57;19.48;;;8.82;;
57443;SDS011;43289;52.962;6.196;2024-02-15T01:43:23;14.15;;;6.65;;
57443;SDS011;43289;52.962;6.196;2024-02-15T01:45:49;12.50;;;7.63;;
57443;SDS011;43289;52.962;6.196;2024-02-15T01:48:16;18.08;;;7.18;;
57443;SDS011;43289;52.962;6.196;2024-02-15T01:50:42;20.33;;;7.55;;
57443;SDS011;43289;52.962;6.196;2024-02-15T01:53:08;14.10;;;6.03;;
57443;SDS011;43289;52.962;6.196;2024-02-15T01:55:35;16.00;;;6.97;;
57443;SDS011;43289;52.962;6.196;2024-02-15T01:58:01;14.65;;;7.13;;
57443;SDS011;43289;52.962;6.196;2024-02-15T02:00:28;18.52;;;5.82;;
57443;SDS011;43289;52.962;6.196;2024-02-15T02:02:54;14.88;;;6.22;;
57443;SDS011;43289;52.962;6.196;2024-02-15T02:05:26;12.07;;;5.93;;
57443;SDS011;43289;52.962;6.196;2024-02-15T02:07:54;16.95;;;6.82;;
57443;SDS011;43289;52.962;6.196;2024-02-15T02:10:24;20.70;;;7.93;;
57443;SDS011;43289;52.962;6.196;2024-02-15T02:12:50;12.45;;;5.65;;
57443;SDS011;43289;52.962;6.196;2024-02-15T02:15:16;18.65;;;6.68;;
57443;SDS011;43289;52.962;6.196;2024-02-15T02:17:42;13.57;;;6.68;;
57443;SDS011;43289;52.962;6.196;2024-02-15T02:20:08;13.30;;;5.20;;
57443;SDS011;43289;52.962;6.196;2024-02-15T02:22:35;15.65;;;6.80;;
57443;SDS011;43289;52.962;6.196;2024-02-15T02:25:03;15.68;;;8.02;;
57443;SDS011;43289;52.962;6.196;2024-02-15T02:27:34;19.52;;;8.13;;
57443;SDS011;43289;52.962;6.196;2024-02-15T02:30:04;15.30;;;7.40;;
57443;SDS011;43289;52.962;6.196;2024-02-15T02:32:34;19.58;;;8.10;;
57443;SDS011;43289;52.962;6.196;2024-02-15T02:35:01;18.55;;;7.43;;
57443;SDS011;43289;52.962;6.196;2024-02-15T02:37:28;20.38;;;7.85;;
57443;SDS011;43289;52.962;6.196;2024-02-15T02:39:54;21.10;;;8.88;;
57443;SDS011;43289;52.962;6.196;2024-02-15T02:42:20;19.73;;;7.38;;
57443;SDS011;43289;52.962;6.196;2024-02-15T02:44:47;21.10;;;7.93;;
57443;SDS011;43289;52.962;6.196;2024-02-15T02:47:14;16.77;;;8.93;;
57443;SDS011;43289;52.962;6.196;2024-02-15T02:49:40;20.90;;;8.30;;
57443;SDS011;43289;52.962;6.196;2024-02-15T02:52:06;24.48;;;8.13;;
57443;SDS011;43289;52.962;6.196;2024-02-15T02:54:32;20.38;;;7.70;;
57443;SDS011;43289;52.962;6.196;2024-02-15T02:56:59;15.77;;;6.15;;
57443;SDS011;43289;52.962;6.196;2024-02-15T02:59:25;21.10;;;8.48;;
57443;SDS011;43289;52.962;6.196;2024-02-15T03:01:52;18.27;;;8.02;;
57443;SDS011;43289;52.962;6.196;2024-02-15T03:04:21;23.23;;;9.38;;
57443;SDS011;43289;52.962;6.196;2024-02-15T03:06:47;27.70;;;9.68;;
57443;SDS011;43289;52.962;6.196;2024-02-15T03:09:13;17.95;;;8.07;;
57443;SDS011;43289;52.962;6.196;2024-02-15T03:11:39;20.55;;;8.48;;
57443;SDS011;43289;52.962;6.196;2024-02-15T03:14:05;23.27;;;8.60;;
57443;SDS011;43289;52.962;6.196;2024-02-15T03:16:32;21.88;;;9.15;;
57443;SDS011;43289;52.962;6.196;2024-02-15T03:18:59;26.80;;;8.05;;
57443;SDS011;43289;52.962;6.196;2024-02-15T03:21:27;20.63;;;8.25;;
57443;SDS011;43289;52.962;6.196;2024-02-15T03:23:53;18.90;;;8.32;;
57443;SDS011;43289;52.962;6.196;2024-02-15T03:26:28;24.92;;;8.90;;
57443;SDS011;43289;52.962;6.196;2024-02-15T03:28:55;27.60;;;10.10;;
57443;SDS011;43289;52.962;6.196;2024-02-15T03:31:21;19.65;;;8.43;;
57443;SDS011;43289;52.962;6.196;2024-02-15T03:33:47;24.45;;;9.77;;
57443;SDS011;43289;52.962;6.196;2024-02-15T03:36:15;22.77;;;9.48;;
57443;SDS011;43289;52.962;6.196;2024-02-15T03:38:45;21.00;;;9.43;;
57443;SDS011;43289;52.962;6.196;2024-02-15T03:41:11;24.17;;;11.05;;
57443;SDS011;43289;52.962;6.196;2024-02-15T03:43:38;26.30;;;11.05;;
57443;SDS011;43289;52.962;6.196;2024-02-15T03:46:04;21.98;;;10.10;;
57443;SDS011;43289;52.962;6.196;2024-02-15T03:48:30;28.35;;;10.98;;
57443;SDS011;43289;52.962;6.196;2024-02-15T03:50:57;23.33;;;10.85;;
57443;SDS011;43289;52.962;6.196;2024-02-15T03:53:23;26.98;;;12.05;;
57443;SDS011;43289;52.962;6.196;2024-02-15T03:55:49;29.27;;;11.20;;
57443;SDS011;43289;52.962;6.196;2024-02-15T03:58:18;27.52;;;12.48;;
57443;SDS011;43289;52.962;6.196;2024-02-15T04:00:45;24.33;;;11.63;;
57443;SDS011;43289;52.962;6.196;2024-02-15T04:03:11;25.33;;;12.20;;
57443;SDS011;43289;52.962;6.196;2024-02-15T04:05:37;29.80;;;11.93;;
57443;SDS011;43289;52.962;6.196;2024-02-15T04:08:03;28.73;;;11.98;;
57443;SDS011;43289;52.962;6.196;2024-02-15T04:10:30;25.38;;;12.65;;
57443;SDS011;43289;52.962;6.196;2024-02-15T04:12:56;23.35;;;13.05;;
57443;SDS011;43289;52.962;6.196;2024-02-15T04:15:25;29.25;;;13.20;;
57443;SDS011;43289;52.962;6.196;2024-02-15T04:17:51;25.75;;;13.00;;
57443;SDS011;43289;52.962;6.196;2024-02-15T04:20:21;29.45;;;12.95;;
57443;SDS011;43289;52.962;6.196;2024-02-15T04:22:47;25.63;;;12.93;;
57443;SDS011;43289;52.962;6.196;2024-02-15T04:25:15;29.00;;;13.88;;
57443;SDS011;43289;52.962;6.196;2024-02-15T04:27:45;31.85;;;14.70;;
57443;SDS011;43289;52.962;6.196;2024-02-15T04:30:12;27.73;;;13.48;;
57443;SDS011;43289;52.962;6.196;2024-02-15T04:32:38;25.73;;;14.07;;
57443;SDS011;43289;52.962;6.196;2024-02-15T04:35:05;34.33;;;14.43;;
57443;SDS011;43289;52.962;6.196;2024-02-15T04:37:31;25.33;;;13.98;;
57443;SDS011;43289;52.962;6.196;2024-02-15T04:39:59;28.00;;;14.38;;
57443;SDS011;43289;52.962;6.196;2024-02-15T04:42:33;26.30;;;14.50;;
57443;SDS011;43289;52.962;6.196;2024-02-15T04:45:05;29.00;;;14.85;;
57443;SDS011;43289;52.962;6.196;2024-02-15T04:47:33;27.77;;;15.77;;
57443;SDS011;43289;52.962;6.196;2024-02-15T04:49:59;33.55;;;16.63;;
57443;SDS011;43289;52.962;6.196;2024-02-15T04:52:25;24.83;;;15.30;;
57443;SDS011;43289;52.962;6.196;2024-02-15T04:54:51;28.83;;;16.90;;
57443;SDS011;43289;52.962;6.196;2024-02-15T05:00:14;29.88;;;16.75;;
57443;SDS011;43289;52.962;6.196;2024-02-15T05:02:42;28.42;;;17.33;;
57443;SDS011;43289;52.962;6.196;2024-02-15T05:05:09;34.97;;;17.27;;
57443;SDS011;43289;52.962;6.196;2024-02-15T05:07:41;29.15;;;18.02;;
57443;SDS011;43289;52.962;6.196;2024-02-15T05:10:08;34.28;;;18.05;;
57443;SDS011;43289;52.962;6.196;2024-02-15T05:12:38;36.00;;;19.08;;
57443;SDS011;43289;52.962;6.196;2024-02-15T05:15:08;40.15;;;19.67;;
57443;SDS011;43289;52.962;6.196;2024-02-15T05:17:40;38.63;;;19.65;;
57443;SDS011;43289;52.962;6.196;2024-02-15T05:20:10;36.03;;;20.23;;
57443;SDS011;43289;52.962;6.196;2024-02-15T05:22:40;40.72;;;19.98;;
57443;SDS011;43289;52.962;6.196;2024-02-15T05:25:10;36.72;;;21.27;;
57443;SDS011;43289;52.962;6.196;2024-02-15T05:27:37;31.92;;;20.27;;
57443;SDS011;43289;52.962;6.196;2024-02-15T05:30:03;36.30;;;21.65;;
57443;SDS011;43289;52.962;6.196;2024-02-15T05:32:33;34.00;;;21.17;;
57443;SDS011;43289;52.962;6.196;2024-02-15T05:35:06;38.08;;;20.67;;
57443;SDS011;43289;52.962;6.196;2024-02-15T05:37:33;39.78;;;20.88;;
57443;SDS011;43289;52.962;6.196;2024-02-15T05:40:00;35.20;;;21.25;;
57443;SDS011;43289;52.962;6.196;2024-02-15T05:42:26;33.97;;;22.08;;
57443;SDS011;43289;52.962;6.196;2024-02-15T05:44:52;31.30;;;21.73;;
57443;SDS011;43289;52.962;6.196;2024-02-15T05:47:18;42.13;;;21.98;;
57443;SDS011;43289;52.962;6.196;2024-02-15T05:49:44;37.70;;;22.52;;
57443;SDS011;43289;52.962;6.196;2024-02-15T05:52:12;37.33;;;21.50;;
57443;SDS011;43289;52.962;6.196;2024-02-15T05:54:38;37.95;;;20.33;;
57443;SDS011;43289;52.962;6.196;2024-02-15T05:57:06;37.90;;;21.13;;
57443;SDS011;43289;52.962;6.196;2024-02-15T05:59:33;33.38;;;21.25;;
57443;SDS011;43289;52.962;6.196;2024-02-15T06:02:00;41.90;;;21.95;;
57443;SDS011;43289;52.962;6.196;2024-02-15T06:04:28;39.58;;;22.50;;
57443;SDS011;43289;52.962;6.196;2024-02-15T06:06:54;31.40;;;21.05;;
57443;SDS011;43289;52.962;6.196;2024-02-15T06:09:25;38.45;;;21.35;;
57443;SDS011;43289;52.962;6.196;2024-02-15T06:11:52;34.85;;;20.70;;
57443;SDS011;43289;52.962;6.196;2024-02-15T06:14:20;33.10;;;21.52;;
57443;SDS011;43289;52.962;6.196;2024-02-15T06:16:46;35.25;;;20.63;;
57443;SDS011;43289;52.962;6.196;2024-02-15T06:19:13;30.48;;;19.90;;
57443;SDS011;43289;52.962;6.196;2024-02-15T06:21:39;35.47;;;20.42;;
57443;SDS011;43289;52.962;6.196;2024-02-15T06:24:05;34.75;;;20.13;;
57443;SDS011;43289;52.962;6.196;2024-02-15T06:26:31;32.38;;;20.25;;
57443;SDS011;43289;52.962;6.196;2024-02-15T06:28:59;36.97;;;21.05;;
57443;SDS011;43289;52.962;6.196;2024-02-15T06:31:44;31.25;;;19.52;;
57443;SDS011;43289;52.962;6.196;2024-02-15T06:34:29;34.28;;;19.63;;
57443;SDS011;43289;52.962;6.196;2024-02-15T06:37:34;36.47;;;19.70;;
57443;SDS011;43289;52.962;6.196;2024-02-15T06:40:19;33.60;;;19.00;;
57443;SDS011;43289;52.962;6.196;2024-02-15T06:42:45;34.58;;;19.77;;
57443;SDS011;43289;52.962;6.196;2024-02-15T06:45:11;41.67;;;20.83;;
57443;SDS011;43289;52.962;6.196;2024-02-15T06:47:41;31.05;;;18.63;;
57443;SDS011;43289;52.962;6.196;2024-02-15T06:50:10;29.60;;;17.40;;
57443;SDS011;43289;52.962;6.196;2024-02-15T06:52:37;31.30;;;18.33;;
57443;SDS011;43289;52.962;6.196;2024-02-15T06:55:04;31.35;;;17.38;;
57443;SDS011;43289;52.962;6.196;2024-02-15T06:57:30;29.52;;;17.05;;
57443;SDS011;43289;52.962;6.196;2024-02-15T06:59:56;31.85;;;17.02;;
57443;SDS011;43289;52.962;6.196;2024-02-15T07:02:22;29.10;;;17.92;;
57443;SDS011;43289;52.962;6.196;2024-02-15T07:04:48;28.63;;;16.55;;
57443;SDS011;43289;52.962;6.196;2024-02-15T07:07:21;33.75;;;17.42;;
57443;SDS011;43289;52.962;6.196;2024-02-15T07:09:47;30.80;;;17.33;;
57443;SDS011;43289;52.962;6.196;2024-02-15T07:12:13;28.48;;;16.50;;
57443;SDS011;43289;52.962;6.196;2024-02-15T07:14:40;25.55;;;16.40;;
57443;SDS011;43289;52.962;6.196;2024-02-15T07:17:06;26.85;;;16.35;;
57443;SDS011;43289;52.962;6.196;2024-02-15T07:19:32;28.70;;;18.25;;
57443;SDS011;43289;52.962;6.196;2024-02-15T07:22:01;36.92;;;17.27;;
57443;SDS011;43289;52.962;6.196;2024-02-15T07:24:27;32.30;;;16.13;;
57443;SDS011;43289;52.962;6.196;2024-02-15T07:26:53;26.58;;;16.20;;
57443;SDS011;43289;52.962;6.196;2024-02-15T07:29:23;27.98;;;15.20;;
57443;SDS011;43289;52.962;6.196;2024-02-15T07:31:49;28.70;;;15.38;;
57443;SDS011;43289;52.962;6.196;2024-02-15T07:37:39;24.88;;;15.95;;
57443;SDS011;43289;52.962;6.196;2024-02-15T07:40:05;29.17;;;15.63;;
57443;SDS011;43289;52.962;6.196;2024-02-15T07:42:33;33.75;;;17.55;;
57443;SDS011;43289;52.962;6.196;2024-02-15T07:45:00;25.73;;;16.02;;
57443;SDS011;43289;52.962;6.196;2024-02-15T07:47:26;24.58;;;13.98;;
57443;SDS011;43289;52.962;6.196;2024-02-15T07:49:55;22.00;;;15.40;;
57443;SDS011;43289;52.962;6.196;2024-02-15T07:52:21;23.98;;;14.98;;
57443;SDS011;43289;52.962;6.196;2024-02-15T07:54:47;30.65;;;14.25;;
57443;SDS011;43289;52.962;6.196;2024-02-15T07:57:13;29.30;;;14.55;;
57443;SDS011;43289;52.962;6.196;2024-02-15T07:59:43;25.08;;;14.55;;
57443;SDS011;43289;52.962;6.196;2024-02-15T08:02:32;23.83;;;15.68;;
57443;SDS011;43289;52.962;6.196;2024-02-15T08:05:02;31.23;;;13.93;;
57443;SDS011;43289;52.962;6.196;2024-02-15T08:08:26;29.60;;;14.98;;
57443;SDS011;43289;52.962;6.196;2024-02-15T08:10:52;22.90;;;14.90;;
57443;SDS011;43289;52.962;6.196;2024-02-15T08:13:20;28.50;;;14.65;;
57443;SDS011;43289;52.962;6.196;2024-02-15T08:15:47;24.02;;;14.07;;
57443;SDS011;43289;52.962;6.196;2024-02-15T08:18:17;20.80;;;14.30;;
57443;SDS011;43289;52.962;6.196;2024-02-15T08:24:06;23.70;;;15.20;;
57443;SDS011;43289;52.962;6.196;2024-02-15T08:26:37;26.05;;;16.25;;
57443;SDS011;43289;52.962;6.196;2024-02-15T08:29:04;29.00;;;16.23;;
57443;SDS011;43289;52.962;6.196;2024-02-15T08:31:31;24.27;;;14.88;;
57443;SDS011;43289;52.962;6.196;2024-02-15T08:33:57;24.08;;;15.85;;
57443;SDS011;43289;52.962;6.196;2024-02-15T08:36:23;23.75;;;14.82;;
57443;SDS011;43289;52.962;6.196;2024-02-15T08:38:50;29.38;;;16.20;;
57443;SDS011;43289;52.962;6.196;2024-02-15T08:41:16;28.52;;;16.23;;
57443;SDS011;43289;52.962;6.196;2024-02-15T08:43:52;27.13;;;15.00;;
57443;SDS011;43289;52.962;6.196;2024-02-15T08:46:19;24.50;;;14.93;;
57443;SDS011;43289;52.962;6.196;2024-02-15T08:48:46;21.52;;;13.90;;
57443;SDS011;43289;52.962;6.196;2024-02-15T08:51:13;22.65;;;13.95;;
57443;SDS011;43289;52.962;6.196;2024-02-15T08:53:40;22.88;;;14.88;;
57443;SDS011;43289;52.962;6.196;2024-02-15T08:56:06;25.65;;;15.63;;
57443;SDS011;43289;52.962;6.196;2024-02-15T08:58:35;23.27;;;14.48;;
57443;SDS011;43289;52.962;6.196;2024-02-15T09:01:03;24.38;;;15.02;;
57443;SDS011;43289;52.962;6.196;2024-02-15T09:03:29;24.17;;;15.02;;
57443;SDS011;43289;52.962;6.196;2024-02-15T09:05:55;20.75;;;14.52;;
57443;SDS011;43289;52.962;6.196;2024-02-15T09:08:23;23.02;;;14.00;;
57443;SDS011;43289;52.962;6.196;2024-02-15T09:10:49;23.85;;;14.80;;
57443;SDS011;43289;52.962;6.196;2024-02-15T09:13:17;22.73;;;14.77;;
57443;SDS011;43289;52.962;6.196;2024-02-15T09:15:43;20.25;;;12.90;;
57443;SDS011;43289;52.962;6.196;2024-02-15T09:18:10;21.90;;;13.27;;
57443;SDS011;43289;52.962;6.196;2024-02-15T09:20:36;20.30;;;12.45;;
57443;SDS011;43289;52.962;6.196;2024-02-15T09:23:05;20.40;;;13.02;;
57443;SDS011;43289;52.962;6.196;2024-02-15T09:25:34;21.80;;;13.60;;
57443;SDS011;43289;52.962;6.196;2024-02-15T09:28:01;23.75;;;13.75;;
57443;SDS011;43289;52.962;6.196;2024-02-15T09:33:50;21.83;;;13.50;;
57443;SDS011;43289;52.962;6.196;2024-02-15T09:36:16;21.88;;;13.27;;
57443;SDS011;43289;52.962;6.196;2024-02-15T09:38:42;24.10;;;12.90;;
57443;SDS011;43289;52.962;6.196;2024-02-15T09:41:08;23.00;;;13.30;;
57443;SDS011;43289;52.962;6.196;2024-02-15T09:43:35;21.13;;;12.57;;
57443;SDS011;43289;52.962;6.196;2024-02-15T09:46:01;21.25;;;13.30;;
57443;SDS011;43289;52.962;6.196;2024-02-15T09:48:29;19.65;;;12.88;;
57443;SDS011;43289;52.962;6.196;2024-02-15T09:50:55;21.65;;;11.82;;
57443;SDS011;43289;52.962;6.196;2024-02-15T09:53:22;17.60;;;11.90;;
57443;SDS011;43289;52.962;6.196;2024-02-15T09:55:55;15.38;;;11.05;;
57443;SDS011;43289;52.962;6.196;2024-02-15T09:58:29;15.75;;;10.98;;
57443;SDS011;43289;52.962;6.196;2024-02-15T10:00:59;18.67;;;11.93;;
57443;SDS011;43289;52.962;6.196;2024-02-15T10:03:26;14.30;;;9.93;;
57443;SDS011;43289;52.962;6.196;2024-02-15T10:05:54;16.65;;;10.50;;
57443;SDS011;43289;52.962;6.196;2024-02-15T10:08:20;15.70;;;9.25;;
57443;SDS011;43289;52.962;6.196;2024-02-15T10:10:49;16.45;;;10.38;;
57443;SDS011;43289;52.962;6.196;2024-02-15T10:13:31;12.70;;;8.57;;
57443;SDS011;43289;52.962;6.196;2024-02-15T10:15:57;13.52;;;8.88;;
57443;SDS011;43289;52.962;6.196;2024-02-15T10:18:23;13.32;;;8.75;;
57443;SDS011;43289;52.962;6.196;2024-02-15T10:21:07;12.05;;;8.65;;
57443;SDS011;43289;52.962;6.196;2024-02-15T10:23:33;12.18;;;8.77;;
57443;SDS011;43289;52.962;6.196;2024-02-15T10:25:59;12.98;;;7.90;;
57443;SDS011;43289;52.962;6.196;2024-02-15T10:28:27;13.95;;;8.52;;
57443;SDS011;43289;52.962;6.196;2024-02-15T10:30:54;11.10;;;7.80;;
57443;SDS011;43289;52.962;6.196;2024-02-15T10:33:27;12.68;;;7.80;;
57443;SDS011;43289;52.962;6.196;2024-02-15T10:36:06;10.18;;;7.13;;
57443;SDS011;43289;52.962;6.196;2024-02-15T10:38:33;11.43;;;7.82;;
57443;SDS011;43289;52.962;6.196;2024-02-15T10:41:04;11.88;;;7.53;;
57443;SDS011;43289;52.962;6.196;2024-02-15T10:43:31;12.05;;;7.35;;
57443;SDS011;43289;52.962;6.196;2024-02-15T10:45:58;9.23;;;6.45;;
57443;SDS011;43289;52.962;6.196;2024-02-15T10:48:26;8.88;;;6.70;;
57443;SDS011;43289;52.962;6.196;2024-02-15T10:50:53;10.27;;;6.97;;
57443;SDS011;43289;52.962;6.196;2024-02-15T10:53:23;10.32;;;6.78;;
57443;SDS011;43289;52.962;6.196;2024-02-15T10:58:19;8.43;;;5.32;;
57443;SDS011;43289;52.962;6.196;2024-02-15T11:00:46;8.93;;;5.75;;
57443;SDS011;43289;52.962;6.196;2024-02-15T11:03:13;7.82;;;5.32;;
57443;SDS011;43289;52.962;6.196;2024-02-15T11:05:43;7.45;;;5.20;;
57443;SDS011;43289;52.962;6.196;2024-02-15T11:08:10;7.85;;;5.15;;
57443;SDS011;43289;52.962;6.196;2024-02-15T11:10:37;7.63;;;4.80;;
57443;SDS011;43289;52.962;6.196;2024-02-15T11:13:03;7.70;;;5.25;;
57443;SDS011;43289;52.962;6.196;2024-02-15T11:15:39;8.05;;;4.93;;
57443;SDS011;43289;52.962;6.196;2024-02-15T11:18:07;7.78;;;5.30;;
57443;SDS011;43289;52.962;6.196;2024-02-15T11:23:02;6.78;;;4.97;;
57443;SDS011;43289;52.962;6.196;2024-02-15T11:25:32;8.07;;;5.03;;
57443;SDS011;43289;52.962;6.196;2024-02-15T11:30:52;8.52;;;5.18;;
57443;SDS011;43289;52.962;6.196;2024-02-15T11:33:31;7.70;;;5.05;;
57443;SDS011;43289;52.962;6.196;2024-02-15T11:38:32;7.72;;;5.15;;
57443;SDS011;43289;52.962;6.196;2024-02-15T11:41:00;6.65;;;4.88;;
57443;SDS011;43289;52.962;6.196;2024-02-15T11:46:17;7.50;;;5.65;;
57443;SDS011;43289;52.962;6.196;2024-02-15T11:48:52;8.05;;;5.55;;
57443;SDS011;43289;52.962;6.196;2024-02-15T11:51:29;8.15;;;5.43;;
57443;SDS011;43289;52.962;6.196;2024-02-15T11:54:09;10.73;;;6.80;;
57443;SDS011;43289;52.962;6.196;2024-02-15T11:56:52;9.90;;;6.65;;
57443;SDS011;43289;52.962;6.196;2024-02-15T11:59:38;11.27;;;7.30;;
57443;SDS011;43289;52.962;6.196;2024-02-15T12:02:08;11.43;;;7.53;;
57443;SDS011;43289;52.962;6.196;2024-02-15T12:04:52;14.27;;;8.98;;
57443;SDS011;43289;52.962;6.196;2024-02-15T12:07:37;12.77;;;8.88;;
57443;SDS011;43289;52.962;6.196;2024-02-15T12:10:22;13.40;;;8.80;;
57443;SDS011;43289;52.962;6.196;2024-02-15T12:13:07;15.18;;;9.40;;
57443;SDS011;43289;52.962;6.196;2024-02-15T12:16:01;13.68;;;9.05;;
57443;SDS011;43289;52.962;6.196;2024-02-15T12:18:46;16.38;;;9.98;;
57443;SDS011;43289;52.962;6.196;2024-02-15T12:21:19;18.05;;;9.85;;
57443;SDS011;43289;52.962;6.196;2024-02-15T12:23:48;14.57;;;10.25;;
57443;SDS011;43289;52.962;6.196;2024-02-15T12:26:18;17.02;;;10.25;;
57443;SDS011;43289;52.962;6.196;2024-02-15T12:28:49;19.40;;;11.38;;
57443;SDS011;43289;52.962;6.196;2024-02-15T12:31:15;18.30;;;11.52;;
57443;SDS011;43289;52.962;6.196;2024-02-15T12:33:42;18.50;;;11.15;;
57443;SDS011;43289;52.962;6.196;2024-02-15T12:36:09;18.83;;;10.32;;
57443;SDS011;43289;52.962;6.196;2024-02-15T12:38:35;14.80;;;10.57;;
57443;SDS011;43289;52.962;6.196;2024-02-15T12:41:03;17.35;;;10.55;;
57443;SDS011;43289;52.962;6.196;2024-02-15T12:43:30;16.58;;;10.32;;
57443;SDS011;43289;52.962;6.196;2024-02-15T12:45:56;18.90;;;10.70;;
57443;SDS011;43289;52.962;6.196;2024-02-15T12:48:22;14.45;;;11.20;;
57443;SDS011;43289;52.962;6.196;2024-02-15T12:50:48;17.27;;;10.82;;
57443;SDS011;43289;52.962;6.196;2024-02-15T12:53:21;17.95;;;11.65;;
57443;SDS011;43289;52.962;6.196;2024-02-15T12:55:54;14.82;;;10.52;;
57443;SDS011;43289;52.962;6.196;2024-02-15T12:58:21;15.60;;;10.30;;
57443;SDS011;43289;52.962;6.196;2024-02-15T13:00:49;16.80;;;10.90;;
57443;SDS011;43289;52.962;6.196;2024-02-15T13:03:15;17.08;;;10.68;;
57443;SDS011;43289;52.962;6.196;2024-02-15T13:05:43;15.90;;;11.05;;
57443;SDS011;43289;52.962;6.196;2024-02-15T13:08:09;15.60;;;9.90;;
57443;SDS011;43289;52.962;6.196;2024-02-15T13:10:37;17.58;;;10.93;;
57443;SDS011;43289;52.962;6.196;2024-02-15T13:13:06;16.40;;;10.77;;
57443;SDS011;43289;52.962;6.196;2024-02-15T13:15:34;18.63;;;10.13;;
57443;SDS011;43289;52.962;6.196;2024-02-15T13:18:02;19.20;;;11.38;;
57443;SDS011;43289;52.962;6.196;2024-02-15T13:20:31;18.23;;;10.18;;
57443;SDS011;43289;52.962;6.196;2024-02-15T13:23:08;17.33;;;12.15;;
57443;SDS011;43289;52.962;6.196;2024-02-15T13:25:40;16.75;;;10.90;;
57443;SDS011;43289;52.962;6.196;2024-02-15T13:28:07;17.05;;;11.38;;
57443;SDS011;43289;52.962;6.196;2024-02-15T13:30:35;17.52;;;10.65;;
57443;SDS011;43289;52.962;6.196;2024-02-15T13:33:01;15.18;;;10.32;;
57443;SDS011;43289;52.962;6.196;2024-02-15T13:35:28;21.25;;;11.50;;
57443;SDS011;43289;52.962;6.196;2024-02-15T13:37:54;21.25;;;12.65;;
57443;SDS011;43289;52.962;6.196;2024-02-15T13:40:23;19.92;;;11.32;;
57443;SDS011;43289;52.962;6.196;2024-02-15T13:42:55;20.63;;;12.15;;
57443;SDS011;43289;52.962;6.196;2024-02-15T13:45:24;16.50;;;10.52;;
57443;SDS011;43289;52.962;6.196;2024-02-15T13:47:55;17.88;;;11.23;;
57443;SDS011;43289;52.962;6.196;2024-02-15T13:50:22;23.10;;;12.80;;
57443;SDS011;43289;52.962;6.196;2024-02-15T13:52:49;20.77;;;11.82;;
57443;SDS011;43289;52.962;6.196;2024-02-15T13:55:18;22.30;;;12.88;;
57443;SDS011;43289;52.962;6.196;2024-02-15T13:57:48;20.83;;;12.13;;
57443;SDS011;43289;52.962;6.196;2024-02-15T14:00:14;19.70;;;11.85;;
57443;SDS011;43289;52.962;6.196;2024-02-15T14:02:47;20.27;;;12.02;;
57443;SDS011;43289;52.962;6.196;2024-02-15T14:05:14;21.27;;;12.18;;
57443;SDS011;43289;52.962;6.196;2024-02-15T14:07:42;22.17;;;12.35;;
57443;SDS011;43289;52.962;6.196;2024-02-15T14:10:09;18.52;;;13.13;;
57443;SDS011;43289;52.962;6.196;2024-02-15T14:15:57;22.80;;;13.15;;
57443;SDS011;43289;52.962;6.196;2024-02-15T14:18:24;20.70;;;12.35;;
57443;SDS011;43289;52.962;6.196;2024-02-15T14:20:53;23.08;;;11.73;;
57443;SDS011;43289;52.962;6.196;2024-02-15T14:23:19;18.67;;;12.60;;
57443;SDS011;43289;52.962;6.196;2024-02-15T14:25:45;20.85;;;12.10;;
57443;SDS011;43289;52.962;6.196;2024-02-15T14:28:11;19.20;;;11.30;;
57443;SDS011;43289;52.962;6.196;2024-02-15T14:30:39;19.20;;;11.13;;
57443;SDS011;43289;52.962;6.196;2024-02-15T14:33:24;19.05;;;10.82;;
57443;SDS011;43289;52.962;6.196;2024-02-15T14:35:51;18.05;;;10.43;;
57443;SDS011;43289;52.962;6.196;2024-02-15T14:38:21;18.63;;;10.95;;
57443;SDS011;43289;52.962;6.196;2024-02-15T14:40:48;17.05;;;9.95;;
57443;SDS011;43289;52.962;6.196;2024-02-15T14:43:23;18.30;;;10.75;;
57443;SDS011;43289;52.962;6.196;2024-02-15T14:45:51;15.95;;;10.15;;
57443;SDS011;43289;52.962;6.196;2024-02-15T14:48:19;21.00;;;10.57;;
57443;SDS011;43289;52.962;6.196;2024-02-15T14:50:45;18.23;;;10.25;;
57443;SDS011;43289;52.962;6.196;2024-02-15T14:53:12;18.23;;;11.02;;
57443;SDS011;43289;52.962;6.196;2024-02-15T14:55:38;13.85;;;10.20;;
57443;SDS011;43289;52.962;6.196;2024-02-15T14:58:05;18.60;;;11.63;;
57443;SDS011;43289;52.962;6.196;2024-02-15T15:00:33;18.25;;;11.05;;
57443;SDS011;43289;52.962;6.196;2024-02-15T15:02:59;21.83;;;10.82;;